首页
METAR-TAF:

METAR-TAF

机场 :

兰州中川国际机场

兰州, 中华人民共和国

纬度: 36-02N, 经度: 103-52E, 海拔: 1518米

当前天气观测

该预报发布于42分钟前的08:00 UTC
风速4节,风向东转东南,在之间变化
温度 18°C
湿度 56%
气压 1020 hPa
能见度10公里或以上
散云层高于2000英尺

METAR: ZLLL 230800Z 12002MPS 010V180 9999 SCT020 18/09 Q1020 NOSIG

时间: 16:42 (08:42 UTC)

预报

该预报发布于5小时和36分钟前的03:06 UTC
预报有效从23日的 06点(UTC)到 24日的 06点(UTC)
风速6节,风向
能見度: 6000
散云层高于4000英尺
短暂存在
从 23日的 06点(UTC)到 23日的 12点(UTC)
少量云层高于3300英尺, 积雨云.
散云层高于4000英尺
短暂存在
从 23日的 22点(UTC)到 24日的 04点(UTC)
能見度: 4000
小雨

TAF: ZLLL 230306Z 2306/2406 18003MPS 6000 SCT040 TX19/2309Z TN09/2322Z TEMPO 2306/2312 FEW033CB SCT040 TEMPO 2322/2404 4000 -RA

超过4000个机场的气象观测和天气预报(METAR&TAF报告)。

可查询的气象台以黄色和红色小点在地图上表示。

将鼠标移到小点上方,可查看气象台名称。

然后点击查看天气观测和预报。

如需切换地图:点击带黑十字的绿色按钮放大地图;点击带横线的绿色按钮缩小地图;或者点击绿色箭头查看邻近地区的地图。


METAR-TAF: